Aden, Yemen
Current Conditions -  °F | °C
As of 3:00 PM on Saturday 20 Dec 2014 (Local Time) from OYAA Reporting Station
Few Clouds Few Clouds  
Wind Chill: 28°   Ceiling: Unl
Heat Index: 28°   Visibility: 6mi
Dew Point: 16°   Wind: 14mph
Humidity: 48%   Direction: 130°SE
Pressure: 29.97"   Gusts: NA
Location:  12.79°N, 45.03°E
Report Text: OYAA 201200Z 13012KT 9999 FEW018 28/16 Q1015
Loading
Personal Weather Stations






























Interactive Weather Map New forecast layout! Learn more

10-Day Weather Forecast

Advertisements
Track Severe Weather on mobile